Timiskaming Regional Airport
CYXR : now visible

Airfield :











YOU CAN JOIN US ON...

 
LOGIN :

Register | Disclaimer

   EN    FR    IT 

 









Legend :    VFR   Marginal VFR   IFR   Intensive IFR   Very Intensive IFR
Visi :
Ceiling :
>= 8 km
>= 3000ft
5 to 8 km
1000 to 3000 ft
1500m to 5 km
500 to 1000 ft
800 to 1500m
200 to 500 ft
< 800m
< 200 ft
Symbols :   Thunderstorms  Fog  Heavy snow  Heavy precipitations  Wind > 20 kt






- Airport Elevation : 798 ft
- IATA code : YXR


CYXR - Timiskaming Regional

CURRENT METAR :
  • 230800Z AUTO 24009G21KT 9SM CLR 13/07 A2963 RMK SLP036 DENSITY ALT 1100FT

EXPIRED METARs :
  • 230700Z AUTO 24012G21KT 9SM FEW039 BKN050 14/07 A2962 RMK SLP033 DENSITY ALT 1300FT
  • 230600Z AUTO 23013G23KT 9SM BKN055 BKN071 16/09 A2960 RMK SLP026 DENSITY ALT 1500FT
  • 230500Z AUTO 23023G35KT 9SM BKN055 17/08 A2957 RMK PRESRR SLP017 DENSITY ALT 1700FT
  • 230400Z AUTO 23020G27KT 9SM CLR 18/09 A2955 RMK SLP010 DENSITY ALT 1800FT

Expired Forecast.
CZYZ FIR / North America



MET'MAP, your aeronautical weather chart ! - Copyright ORBIFLY December 2007 - Disclaimer

ORBIFLY MET'MAP TEAM :

Programming & Development : Alexandra Zaïnal
Original concept : Baudouin d'Aumeries
Technical & hardware support : Manuel Goepfert
Assistance : Marc-Olivier Méhu




SOURCES & CREDITS :

   NOAA       Earth
Advisory